Time;durP1;ratioP1;P1;durP2;ratioP2;P2;SDS_P1;SDS_P2;PMS_P1;PMS_P2;Temp;Humidity;BMP_temperature;BMP_pressure;BME280_temperature;BME280_humidity;BME280_pressure;Samples;Min_cycle;Max_cycle;Signal;HPM_P1;HPM_P2
2021/12/30 00:01:28;;;;;;;39.35;7.93;;;9.90;99.90;;;;;;5047831;28;20309;-73
2021/12/30 00:03:55;;;;;;;36.63;7.05;;;9.80;99.90;;;;;;5045795;28;20176;-73
2021/12/30 00:06:23;;;;;;;35.28;6.68;;;9.90;99.90;;;;;;5068935;28;20414;-73
2021/12/30 00:08:51;;;;;;;38.72;7.10;;;9.90;99.90;;;;;;5048600;28;20388;-73
2021/12/30 00:11:17;;;;;;;39.85;7.45;;;9.80;99.90;;;;;;5050136;28;20071;-73
2021/12/30 00:13:45;;;;;;;37.78;7.25;;;9.80;99.90;;;;;;5068084;28;20044;-73
2021/12/30 00:16:15;;;;;;;39.05;7.05;;;9.80;99.90;;;;;;5053276;28;20508;-74
2021/12/30 00:18:42;;;;;;;34.45;7.05;;;9.80;99.90;;;;;;5052089;28;20071;-72
2021/12/30 00:21:08;;;;;;;36.53;7.30;;;9.80;99.90;;;;;;5054850;28;20086;-73
2021/12/30 00:23:34;;;;;;;39.17;7.18;;;9.80;99.90;;;;;;5052908;28;20704;-73
2021/12/30 00:26:00;;;;;;;42.00;7.97;;;9.80;99.90;;;;;;5073112;28;20036;-73
2021/12/30 00:28:28;;;;;;;40.47;7.65;;;9.80;99.90;;;;;;5052657;28;20411;-73
2021/12/30 00:30:54;;;;;;;36.33;8.18;;;9.80;99.90;;;;;;5054193;28;20056;-73
2021/12/30 00:33:21;;;;;;;37.58;8.02;;;9.70;99.90;;;;;;5071153;28;20040;-73
2021/12/30 00:35:47;;;;;;;41.85;7.97;;;9.70;99.90;;;;;;5072463;28;20036;-73
2021/12/30 00:38:14;;;;;;;41.65;7.30;;;9.70;99.90;;;;;;5052230;28;20040;-73
2021/12/30 00:40:40;;;;;;;45.72;8.10;;;9.70;99.90;;;;;;5049356;28;20087;-73
2021/12/30 00:43:06;;;;;;;44.40;7.93;;;9.60;99.90;;;;;;5047203;28;20036;-73
2021/12/30 00:45:34;;;;;;;36.53;7.25;;;9.60;99.90;;;;;;5053638;28;20048;-74
2021/12/30 00:48:00;;;;;;;39.95;7.70;;;9.70;99.90;;;;;;5050083;28;20049;-73
2021/12/30 00:50:27;;;;;;;43.85;8.43;;;9.60;99.90;;;;;;5052202;28;20044;-72
2021/12/30 00:52:53;;;;;;;39.42;7.80;;;9.70;99.90;;;;;;5049889;28;20048;-73
2021/12/30 00:55:19;;;;;;;46.23;8.27;;;9.60;99.90;;;;;;5043257;28;20040;-72
2021/12/30 00:57:45;;;;;;;50.13;8.00;;;9.60;99.90;;;;;;5047770;28;20044;-72
2021/12/30 01:00:14;;;;;;;47.42;8.95;;;9.50;99.90;;;;;;5071617;28;20036;-73
2021/12/30 01:02:41;;;;;;;43.80;8.85;;;9.60;99.90;;;;;;5051671;28;20037;-72
2021/12/30 01:05:08;;;;;;;37.33;7.25;;;9.50;99.90;;;;;;5052757;28;20060;-72
2021/12/30 01:07:34;;;;;;;45.45;8.40;;;9.50;99.90;;;;;;5066316;28;20127;-72
2021/12/30 01:10:00;;;;;;;42.45;7.85;;;9.50;99.90;;;;;;5050693;28;20120;-73
2021/12/30 01:12:26;;;;;;;44.42;7.90;;;9.50;99.90;;;;;;5047725;28;20094;-72
2021/12/30 01:14:52;;;;;;;37.53;7.93;;;9.50;99.90;;;;;;5051017;28;20061;-72
2021/12/30 01:17:24;;;;;;;37.22;7.78;;;9.50;99.90;;;;;;5050306;28;20063;-73
2021/12/30 01:19:51;;;;;;;36.63;7.47;;;9.50;99.90;;;;;;5045356;28;20080;-72
2021/12/30 01:22:23;;;;;;;40.83;7.43;;;9.50;99.90;;;;;;5049336;28;20048;-72
2021/12/30 01:24:50;;;;;;;39.20;7.82;;;9.50;99.90;;;;;;5068061;28;20512;-73
2021/12/30 01:27:17;;;;;;;41.88;9.20;;;9.50;99.90;;;;;;5052575;28;20044;-73
2021/12/30 01:29:42;;;;;;;39.40;8.00;;;9.50;99.90;;;;;;5052791;28;20040;-72
2021/12/30 01:32:09;;;;;;;42.63;8.18;;;9.50;99.90;;;;;;5053258;28;20056;-73
2021/12/30 01:34:35;;;;;;;44.88;9.55;;;9.40;99.90;;;;;;5050976;28;20044;-72
2021/12/30 01:37:03;;;;;;;38.60;7.68;;;9.40;99.90;;;;;;5053249;28;20392;-72
2021/12/30 01:39:31;;;;;;;40.30;8.90;;;9.30;99.90;;;;;;5050094;28;20044;-72
2021/12/30 01:41:58;;;;;;;40.97;7.50;;;9.30;99.90;;;;;;5056100;28;20131;-73
2021/12/30 01:44:24;;;;;;;42.45;7.47;;;9.30;99.90;;;;;;5050825;28;20270;-73
2021/12/30 01:46:50;;;;;;;36.60;7.30;;;9.30;99.90;;;;;;5048638;28;20408;-73
2021/12/30 01:49:17;;;;;;;36.50;7.47;;;9.30;99.90;;;;;;5050071;28;20500;-72
2021/12/30 01:51:43;;;;;;;42.10;8.43;;;9.20;99.90;;;;;;5053402;28;20044;-73
2021/12/30 01:54:10;;;;;;;40.17;7.97;;;9.20;99.90;;;;;;5068258;28;20083;-72
2021/12/30 01:56:35;;;;;;;44.75;8.27;;;9.20;99.90;;;;;;5048021;28;20080;-72
2021/12/30 01:59:02;;;;;;;45.65;7.93;;;9.10;99.90;;;;;;5047638;28;20099;-73
2021/12/30 02:01:28;;;;;;;43.30;7.72;;;9.10;99.90;;;;;;5050788;28;20065;-72
2021/12/30 02:03:54;;;;;;;36.20;7.57;;;9.10;99.90;;;;;;5051869;28;20488;-73
2021/12/30 02:06:20;;;;;;;40.55;8.25;;;9.10;99.90;;;;;;5048332;28;20067;-72
2021/12/30 02:08:46;;;;;;;43.83;8.05;;;9.10;99.90;;;;;;5051590;28;20051;-73
2021/12/30 02:11:12;;;;;;;43.35;8.85;;;9.10;99.90;;;;;;5070972;28;20415;-73
2021/12/30 02:13:37;;;;;;;52.13;9.07;;;9.10;99.90;;;;;;5068424;28;20399;-72
2021/12/30 02:16:03;;;;;;;39.42;8.02;;;9.10;99.90;;;;;;5050177;28;20113;-73
2021/12/30 02:18:30;;;;;;;41.97;8.18;;;9.10;99.90;;;;;;5070181;28;20181;-73
2021/12/30 02:21:01;;;;;;;45.00;8.73;;;9.10;99.90;;;;;;5051317;28;20097;-72
2021/12/30 02:23:29;;;;;;;44.05;9.63;;;9.10;99.90;;;;;;5047110;28;20056;-72
2021/12/30 02:25:58;;;;;;;43.00;10.48;;;9.10;99.90;;;;;;5051088;28;20044;-72
2021/12/30 02:28:26;;;;;;;49.60;11.30;;;9.20;99.90;;;;;;5044691;28;20868;-73
2021/12/30 02:30:54;;;;;;;51.53;11.73;;;9.20;99.90;;;;;;5049885;28;20045;-72
2021/12/30 02:33:20;;;;;;;51.55;11.25;;;9.20;99.90;;;;;;5051425;28;20044;-73
2021/12/30 02:35:46;;;;;;;47.15;12.13;;;9.30;99.90;;;;;;5051365;28;20051;-72
2021/12/30 02:38:12;;;;;;;51.15;12.35;;;9.30;99.90;;;;;;5047524;28;20041;-73
2021/12/30 02:40:44;;;;;;;44.63;12.15;;;9.30;99.90;;;;;;5069252;28;20117;-73
2021/12/30 02:43:17;;;;;;;61.00;15.13;;;9.40;99.90;;;;;;5052157;28;20082;-72
2021/12/30 02:45:43;;;;;;;53.35;15.45;;;9.40;99.90;;;;;;5047441;28;20122;-73
2021/12/30 02:48:17;;;;;;;54.58;15.40;;;9.50;99.90;;;;;;5068759;28;20479;-73
2021/12/30 02:50:44;;;;;;;56.88;16.35;;;9.50;99.90;;;;;;5038855;28;20479;-73
2021/12/30 02:53:12;;;;;;;56.05;15.75;;;9.50;99.90;;;;;;5051490;28;20049;-73
2021/12/30 02:55:38;;;;;;;;;;;9.60;99.90;;;;;;5048032;28;20041;-72
2021/12/30 02:58:04;;;;;;;55.57;16.77;;;9.60;99.90;;;;;;5047957;28;20269;-72
2021/12/30 03:00:30;;;;;;;51.75;17.92;;;9.60;99.90;;;;;;5037573;28;20051;-72
2021/12/30 03:02:56;;;;;;;59.15;17.05;;;9.70;99.90;;;;;;5048751;28;20072;-72
2021/12/30 03:05:24;;;;;;;56.92;17.48;;;9.60;99.90;;;;;;5047439;28;20053;-73
2021/12/30 03:07:50;;;;;;;;;;;9.60;99.90;;;;;;5048257;28;20073;-73
2021/12/30 03:10:19;;;;;;;57.83;18.38;;;9.60;99.90;;;;;;5045827;28;19931;-72
2021/12/30 03:12:52;;;;;;;61.85;18.58;;;9.70;99.90;;;;;;5050224;28;20059;-72
2021/12/30 03:15:18;;;;;;;64.45;20.48;;;9.70;99.90;;;;;;5049651;28;20128;-72
2021/12/30 03:17:44;;;;;;;57.58;19.55;;;9.70;99.90;;;;;;5051034;28;20535;-72
2021/12/30 03:20:10;;;;;;;65.80;20.27;;;9.70;99.90;;;;;;5047660;28;20080;-72
2021/12/30 03:22:40;;;;;;;61.97;20.42;;;9.70;99.90;;;;;;5048814;28;20040;-73
2021/12/30 03:25:07;;;;;;;55.83;19.58;;;9.70;99.90;;;;;;5045678;28;20051;-72
2021/12/30 03:27:33;;;;;;;;;;;9.70;99.90;;;;;;5047962;28;20052;-72
2021/12/30 03:29:59;;;;;;;53.80;19.10;;;9.70;99.90;;;;;;5041234;28;19931;-72
2021/12/30 03:32:25;;;;;;;58.28;18.83;;;9.70;99.90;;;;;;5048824;28;20044;-72
2021/12/30 03:34:50;;;;;;;62.08;18.80;;;9.70;99.90;;;;;;5050703;28;20511;-72
2021/12/30 03:37:16;;;;;;;55.45;18.50;;;9.70;99.90;;;;;;5069354;28;20037;-72
2021/12/30 03:39:42;;;;;;;58.80;17.50;;;9.70;99.90;;;;;;5049025;28;20574;-72
2021/12/30 03:42:08;;;;;;;53.97;17.65;;;9.70;99.90;;;;;;5050769;28;20032;-72
2021/12/30 03:44:33;;;;;;;60.30;19.13;;;9.70;99.90;;;;;;5050062;28;20028;-73
2021/12/30 03:46:59;;;;;;;63.72;19.17;;;9.70;99.90;;;;;;5050089;28;20055;-72
2021/12/30 03:49:25;;;;;;;60.30;18.83;;;9.70;99.90;;;;;;5049403;28;20045;-73
2021/12/30 03:51:53;;;;;;;55.67;18.52;;;9.70;99.90;;;;;;5052549;28;20052;-73
2021/12/30 03:54:19;;;;;;;49.78;18.02;;;9.70;99.90;;;;;;5053256;28;20048;-73
2021/12/30 03:56:44;;;;;;;55.83;19.42;;;9.70;99.90;;;;;;5072729;28;20032;-73
2021/12/30 03:59:10;;;;;;;58.97;19.35;;;9.70;99.90;;;;;;5053178;28;20384;-73
2021/12/30 04:01:36;;;;;;;53.03;20.05;;;9.70;99.90;;;;;;5053843;28;20059;-74
2021/12/30 04:04:02;;;;;;;63.30;20.77;;;9.70;99.90;;;;;;5069918;28;20032;-73
2021/12/30 04:06:28;;;;;;;54.05;19.33;;;9.70;99.90;;;;;;5053040;28;20076;-73
2021/12/30 04:08:55;;;;;;;54.53;20.23;;;9.70;99.90;;;;;;5050918;28;20159;-73
2021/12/30 04:11:26;;;;;;;66.22;21.60;;;9.70;99.90;;;;;;5040049;28;20492;-73
2021/12/30 04:13:52;;;;;;;53.97;19.98;;;9.70;99.90;;;;;;5052740;28;20037;-73
2021/12/30 04:16:19;;;;;;;70.45;21.60;;;9.70;99.90;;;;;;5071629;28;20414;-74
2021/12/30 04:18:48;;;;;;;58.92;20.58;;;9.70;99.90;;;;;;5054091;28;20051;-73
2021/12/30 04:21:18;;;;;;;55.70;20.45;;;9.70;99.90;;;;;;5055435;28;20055;-73
2021/12/30 04:23:44;;;;;;;62.72;21.95;;;9.70;99.90;;;;;;5052205;28;20441;-73
2021/12/30 04:26:10;;;;;;;68.72;22.60;;;9.70;99.90;;;;;;5055488;28;20037;-73
2021/12/30 04:28:35;;;;;;;66.85;22.30;;;9.70;99.90;;;;;;5050262;28;20068;-73
2021/12/30 04:31:01;;;;;;;68.40;23.55;;;9.70;99.90;;;;;;5053585;28;20885;-73
2021/12/30 04:33:27;;;;;;;62.33;22.33;;;9.70;99.90;;;;;;5054050;28;20041;-73
2021/12/30 04:35:56;;;;;;;57.30;22.65;;;9.70;99.90;;;;;;5054645;28;20052;-72
2021/12/30 04:38:23;;;;;;;64.00;23.45;;;9.70;99.90;;;;;;5052797;28;20044;-72
2021/12/30 04:40:49;;;;;;;;;;;9.70;99.90;;;;;;5053777;28;20503;-73
2021/12/30 04:43:15;;;;;;;69.25;22.52;;;9.70;99.90;;;;;;5053129;28;19926;-73
2021/12/30 04:45:42;;;;;;;65.50;23.58;;;9.70;99.90;;;;;;5053587;28;20090;-73
2021/12/30 04:48:08;;;;;;;63.30;23.42;;;9.80;99.90;;;;;;5052332;28;20068;-73
2021/12/30 04:50:34;;;;;;;72.88;23.67;;;9.80;99.90;;;;;;5051831;28;20044;-73
2021/12/30 04:52:59;;;;;;;69.38;24.75;;;9.80;99.90;;;;;;5052652;28;21411;-73
2021/12/30 04:55:25;;;;;;;67.00;22.92;;;9.90;99.90;;;;;;5053669;28;20488;-73
2021/12/30 04:57:51;;;;;;;71.05;21.77;;;9.90;99.90;;;;;;5049427;28;20052;-72
2021/12/30 05:00:17;;;;;;;80.68;23.50;;;10.00;99.90;;;;;;5051009;28;20063;-73
2021/12/30 05:03:06;;;;;;;73.22;23.40;;;10.00;99.90;;;;;;5048872;28;20048;-73
2021/12/30 05:05:29;;;;;;;80.82;23.77;;;10.00;99.90;;;;;;5051586;28;20499;-73
2021/12/30 05:07:55;;;;;;;69.10;22.90;;;10.00;99.90;;;;;;5051183;28;20408;-73
2021/12/30 05:10:20;;;;;;;90.90;25.15;;;10.00;99.90;;;;;;5050640;28;20049;-73
2021/12/30 05:12:46;;;;;;;81.18;25.52;;;10.10;99.90;;;;;;5066407;28;20040;-73
2021/12/30 05:15:12;;;;;;;75.85;24.70;;;10.10;99.90;;;;;;5053184;28;20077;-73
2021/12/30 05:17:40;;;;;;;84.38;25.40;;;10.10;99.90;;;;;;5052865;28;20044;-73
2021/12/30 05:20:06;;;;;;;71.70;23.17;;;10.10;99.90;;;;;;5052070;28;20072;-74
2021/12/30 05:22:32;;;;;;;78.43;23.95;;;10.10;99.90;;;;;;5054694;28;20083;-71
2021/12/30 05:24:57;;;;;;;69.13;24.20;;;10.10;99.90;;;;;;5052601;28;20064;-73
2021/12/30 05:27:23;;;;;;;78.82;24.35;;;10.20;99.90;;;;;;5052427;28;20051;-73
2021/12/30 05:29:48;;;;;;;74.88;23.60;;;10.20;99.90;;;;;;5052735;28;20139;-73
2021/12/30 05:32:14;;;;;;;86.65;24.38;;;10.20;99.90;;;;;;5071020;28;20036;-73
2021/12/30 05:34:40;;;;;;;73.13;22.95;;;10.20;99.90;;;;;;5052122;28;20045;-73
2021/12/30 05:37:05;;;;;;;72.63;23.80;;;10.20;99.90;;;;;;5053349;28;20511;-73
2021/12/30 05:39:35;;;;;;;88.38;24.38;;;10.20;99.90;;;;;;5049204;28;20086;-72
2021/12/30 05:42:00;;;;;;;83.47;23.60;;;10.30;99.90;;;;;;5052145;28;20193;-73
2021/12/30 05:44:26;;;;;;;80.28;23.45;;;10.30;99.90;;;;;;5052348;28;20524;-73
2021/12/30 05:46:51;;;;;;;86.78;25.40;;;10.30;99.90;;;;;;5068494;28;20050;-73
2021/12/30 05:49:17;;;;;;;81.93;25.75;;;10.30;99.90;;;;;;5052324;28;20480;-73
2021/12/30 05:51:43;;;;;;;89.38;26.50;;;10.30;99.90;;;;;;5051359;28;20084;-73
2021/12/30 05:54:09;;;;;;;94.85;27.35;;;10.40;99.90;;;;;;5051848;28;20178;-73
2021/12/30 05:56:34;;;;;;;97.97;28.67;;;10.40;99.90;;;;;;5050107;28;20049;-73
2021/12/30 05:59:00;;;;;;;96.70;28.60;;;10.40;99.90;;;;;;5068399;28;20031;-73
2021/12/30 06:01:25;;;;;;;78.82;24.63;;;10.40;99.90;;;;;;5050780;28;20499;-73
2021/12/30 06:03:51;;;;;;;101.68;27.73;;;10.40;99.90;;;;;;5052898;28;20041;-74
2021/12/30 06:06:16;;;;;;;87.95;26.17;;;10.40;99.90;;;;;;5049777;28;20558;-72
2021/12/30 06:08:42;;;;;;;98.22;27.40;;;10.50;99.90;;;;;;5048940;28;20036;-73
2021/12/30 06:11:08;;;;;;;96.85;27.40;;;10.50;99.90;;;;;;5050087;28;20051;-73
2021/12/30 06:13:33;;;;;;;95.53;26.38;;;10.50;99.90;;;;;;5052220;28;20086;-73
2021/12/30 06:15:59;;;;;;;95.95;27.20;;;10.50;99.90;;;;;;5049957;28;20060;-73
2021/12/30 06:18:24;;;;;;;90.63;25.98;;;10.60;99.90;;;;;;5049708;28;20476;-73
2021/12/30 06:20:50;;;;;;;94.80;25.77;;;10.60;99.90;;;;;;5050063;28;20385;-73
2021/12/30 06:23:16;;;;;;;100.25;27.58;;;10.60;99.90;;;;;;5052254;28;20487;-73
2021/12/30 06:25:41;;;;;;;95.13;25.88;;;10.60;99.90;;;;;;5049152;28;20124;-73
2021/12/30 06:28:07;;;;;;;94.97;25.92;;;10.70;99.90;;;;;;5052655;28;20090;-72
2021/12/30 06:30:33;;;;;;;97.93;26.73;;;10.70;99.90;;;;;;5048872;28;20033;-73
2021/12/30 06:32:58;;;;;;;91.85;26.02;;;10.70;99.90;;;;;;5047354;28;20064;-73
2021/12/30 06:35:24;;;;;;;97.07;26.23;;;10.70;99.90;;;;;;5051179;28;20045;-73
2021/12/30 06:37:50;;;;;;;98.80;26.73;;;10.70;99.90;;;;;;5050687;28;20087;-73
2021/12/30 06:40:16;;;;;;;102.47;26.70;;;10.80;99.90;;;;;;5047893;28;20048;-73
2021/12/30 06:42:43;;;;;;;98.13;26.10;;;10.80;99.90;;;;;;5050838;28;20044;-73
2021/12/30 06:45:10;;;;;;;86.13;26.23;;;10.80;99.90;;;;;;5049797;28;20040;-73
2021/12/30 06:47:36;;;;;;;90.60;25.83;;;10.80;99.90;;;;;;5070502;28;20076;-73
2021/12/30 06:50:02;;;;;;;97.97;26.35;;;10.80;99.90;;;;;;5050890;28;20087;-73
2021/12/30 06:52:30;;;;;;;98.20;27.67;;;10.80;99.90;;;;;;5051676;28;20102;-73
2021/12/30 06:54:55;;;;;;;90.32;26.38;;;10.90;99.90;;;;;;5048470;28;20520;-73
2021/12/30 06:57:21;;;;;;;88.88;25.65;;;10.90;99.90;;;;;;5051372;28;20044;-73
2021/12/30 06:59:47;;;;;;;96.15;27.23;;;10.90;99.90;;;;;;5050508;28;20048;-73
2021/12/30 07:02:14;;;;;;;101.50;27.63;;;10.90;99.90;;;;;;5046095;28;20040;-73
2021/12/30 07:04:39;;;;;;;92.95;27.08;;;10.90;99.90;;;;;;5031093;28;20080;-72
2021/12/30 07:07:05;;;;;;;90.25;26.25;;;11.00;99.90;;;;;;5041575;28;20080;-72
2021/12/30 07:09:31;;;;;;;89.35;26.77;;;11.00;99.90;;;;;;5047708;28;20048;-72
2021/12/30 07:11:57;;;;;;;86.78;27.15;;;10.90;99.90;;;;;;5046752;28;20044;-72
2021/12/30 07:14:25;;;;;;;106.32;28.17;;;11.00;99.90;;;;;;5039387;28;20048;-71
2021/12/30 07:16:51;;;;;;;91.53;27.92;;;11.00;99.90;;;;;;5049705;28;20048;-72
2021/12/30 07:19:17;;;;;;;76.60;25.75;;;11.00;99.90;;;;;;5050969;28;20075;-72
2021/12/30 07:21:43;;;;;;;76.53;24.25;;;11.10;99.90;;;;;;5043641;28;20080;-73
2021/12/30 07:24:09;;;;;;;81.50;24.83;;;11.10;99.90;;;;;;5064704;28;20139;-73
2021/12/30 07:26:35;;;;;;;73.50;23.67;;;11.10;99.90;;;;;;5049114;28;20037;-73
2021/12/30 07:29:03;;;;;;;93.13;25.58;;;11.10;99.90;;;;;;5049231;28;20044;-73
2021/12/30 07:31:29;;;;;;;82.80;25.35;;;11.10;99.90;;;;;;5051974;28;20069;-72
2021/12/30 07:33:55;;;;;;;73.78;22.40;;;11.10;99.90;;;;;;5049265;28;20043;-72
2021/12/30 07:36:20;;;;;;;75.78;22.98;;;11.10;99.90;;;;;;5047813;28;20040;-73
2021/12/30 07:38:48;;;;;;;80.10;22.70;;;11.10;99.90;;;;;;5051197;28;20496;-72
2021/12/30 07:41:14;;;;;;;70.63;21.85;;;11.10;99.90;;;;;;5047044;28;20086;-72
2021/12/30 07:43:40;;;;;;;64.38;19.58;;;11.10;99.90;;;;;;5045035;28;20048;-73
2021/12/30 07:46:07;;;;;;;63.75;19.40;;;11.10;99.90;;;;;;5064995;28;20414;-72
2021/12/30 07:48:33;;;;;;;50.63;18.30;;;11.10;99.90;;;;;;5050515;28;20053;-73
2021/12/30 07:50:59;;;;;;;64.53;18.45;;;11.20;99.90;;;;;;5049610;28;20089;-73
2021/12/30 07:53:24;;;;;;;49.88;16.20;;;11.10;99.90;;;;;;5044563;28;20098;-73
2021/12/30 07:55:50;;;;;;;47.78;15.85;;;11.20;99.90;;;;;;5033618;28;20050;-73
2021/12/30 07:58:16;;;;;;;35.92;13.63;;;11.20;99.90;;;;;;5048646;28;20044;-73
2021/12/30 08:00:42;;;;;;;39.03;12.48;;;11.20;99.90;;;;;;5065266;28;20041;-73
2021/12/30 08:03:07;;;;;;;32.72;12.18;;;11.20;99.90;;;;;;5062637;28;20086;-72
2021/12/30 08:05:33;;;;;;;27.63;10.75;;;11.20;99.90;;;;;;5068759;28;20051;-73
2021/12/30 08:07:59;;;;;;;25.27;10.38;;;11.20;99.90;;;;;;5046291;28;20396;-72
2021/12/30 08:10:25;;;;;;;26.13;10.15;;;11.20;99.90;;;;;;5046376;28;20076;-72
2021/12/30 08:12:52;;;;;;;23.80;9.77;;;11.20;99.90;;;;;;5046952;28;20049;-73
2021/12/30 08:15:19;;;;;;;24.13;9.50;;;11.20;99.90;;;;;;5050396;28;20092;-72
2021/12/30 08:17:46;;;;;;;23.10;9.23;;;11.30;99.90;;;;;;5048736;28;20491;-72
2021/12/30 08:20:14;;;;;;;22.75;8.70;;;11.20;99.90;;;;;;5051389;28;20048;-73
2021/12/30 08:22:39;;;;;;;21.67;9.27;;;11.30;99.90;;;;;;5047461;28;20052;-72
2021/12/30 08:25:07;;;;;;;19.90;8.50;;;11.30;99.90;;;;;;5047359;28;20045;-72
2021/12/30 08:27:33;;;;;;;22.95;9.60;;;11.30;99.90;;;;;;5049464;28;20036;-73
2021/12/30 08:29:59;;;;;;;20.67;9.07;;;11.30;99.90;;;;;;5048936;28;20395;-73
2021/12/30 08:32:25;;;;;;;20.13;8.75;;;11.30;99.90;;;;;;5046795;28;20102;-72
2021/12/30 08:34:51;;;;;;;17.70;8.10;;;11.30;99.90;;;;;;5065805;28;20174;-73
2021/12/30 08:37:17;;;;;;;16.58;8.50;;;11.30;99.90;;;;;;5070254;28;20131;-74
2021/12/30 08:39:44;;;;;;;16.95;8.27;;;11.30;99.90;;;;;;5049929;28;20162;-76
2021/12/30 08:42:19;;;;;;;17.65;9.13;;;11.40;99.90;;;;;;5051827;28;20490;-75
2021/12/30 08:44:45;;;;;;;13.45;7.70;;;11.40;99.90;;;;;;5052135;28;20381;-74
2021/12/30 08:47:10;;;;;;;16.85;8.73;;;11.40;99.90;;;;;;5051620;28;20052;-74
2021/12/30 08:49:36;;;;;;;17.23;9.13;;;11.40;99.90;;;;;;5034195;28;20102;-73
2021/12/30 08:52:03;;;;;;;18.50;9.48;;;11.40;99.90;;;;;;5064194;28;20494;-74
2021/12/30 08:54:31;;;;;;;21.30;10.25;;;11.50;99.90;;;;;;5054798;28;20093;-73
2021/12/30 08:56:57;;;;;;;19.75;10.70;;;11.50;99.90;;;;;;5071918;28;20051;-73
2021/12/30 08:59:22;;;;;;;19.92;11.13;;;11.50;99.90;;;;;;5053965;28;20040;-72
2021/12/30 09:01:48;;;;;;;24.63;12.10;;;11.60;99.90;;;;;;5071951;28;20144;-73
2021/12/30 09:04:13;;;;;;;24.90;12.77;;;11.60;99.90;;;;;;5039423;28;20041;-73
2021/12/30 09:06:39;;;;;;;27.40;13.90;;;11.60;99.90;;;;;;5055379;28;20102;-74
2021/12/30 09:09:05;;;;;;;30.40;14.98;;;11.70;99.90;;;;;;5046060;28;20102;-74
2021/12/30 09:11:30;;;;;;;27.10;14.45;;;11.80;99.90;;;;;;5052473;28;20044;-75
2021/12/30 09:13:56;;;;;;;33.05;16.92;;;11.80;99.90;;;;;;5053057;28;20124;-74
2021/12/30 09:16:21;;;;;;;29.55;17.35;;;11.80;99.90;;;;;;5049403;28;20053;-75
2021/12/30 09:18:47;;;;;;;32.58;16.70;;;11.90;99.90;;;;;;5038969;28;20041;-74
2021/12/30 09:21:13;;;;;;;31.83;16.95;;;11.90;99.90;;;;;;5050399;28;20045;-74
2021/12/30 09:23:38;;;;;;;31.30;15.80;;;12.00;99.90;;;;;;5057381;28;20036;-72
2021/12/30 09:26:04;;;;;;;25.45;16.52;;;12.00;99.90;;;;;;5053717;28;20490;-73
2021/12/30 09:28:29;;;;;;;28.15;16.58;;;12.00;99.90;;;;;;5050376;28;20057;-75
2021/12/30 09:30:55;;;;;;;28.85;15.40;;;12.00;99.90;;;;;;5041805;28;20046;-75
2021/12/30 09:33:22;;;;;;;24.88;14.63;;;12.10;99.90;;;;;;5053323;28;20545;-75
2021/12/30 09:35:47;;;;;;;20.00;13.53;;;12.10;99.90;;;;;;5070371;28;20162;-73
2021/12/30 09:38:14;;;;;;;17.85;12.50;;;12.20;99.90;;;;;;5052414;28;20084;-70
2021/12/30 09:40:39;;;;;;;21.92;12.70;;;12.20;99.90;;;;;;5052655;28;20044;-70
2021/12/30 09:43:09;;;;;;;19.15;12.15;;;12.20;99.90;;;;;;5049448;28;20491;-71
2021/12/30 09:45:37;;;;;;;22.60;13.15;;;12.20;99.90;;;;;;5069202;28;20075;-71
2021/12/30 09:48:07;;;;;;;20.38;13.07;;;12.30;99.90;;;;;;5052707;28;20044;-71
2021/12/30 09:50:39;;;;;;;17.98;11.75;;;12.30;99.90;;;;;;5051287;28;20090;-71
2021/12/30 09:53:05;;;;;;;20.77;12.52;;;12.30;99.90;;;;;;5053273;28;20483;-72
2021/12/30 09:55:31;;;;;;;21.13;12.15;;;12.40;99.90;;;;;;5050039;28;20059;-71
2021/12/30 09:57:58;;;;;;;21.52;12.00;;;12.40;99.90;;;;;;5059993;28;20131;-71
2021/12/30 10:00:24;;;;;;;20.60;12.45;;;12.40;99.90;;;;;;5050928;28;20541;-71
2021/12/30 10:02:50;;;;;;;19.65;12.00;;;12.40;99.90;;;;;;5069600;28;20052;-71
2021/12/30 10:05:21;;;;;;;18.67;11.75;;;12.40;99.90;;;;;;5049667;28;20396;-71
2021/12/30 10:07:47;;;;;;;19.15;11.68;;;12.40;99.90;;;;;;5052274;28;20664;-71
2021/12/30 10:10:30;;;;;;;22.27;12.98;;;12.40;99.90;;;;;;5053512;28;20044;-72
2021/12/30 10:12:56;;;;;;;22.58;12.60;;;12.40;99.90;;;;;;5050225;28;20555;-73
2021/12/30 10:15:25;;;;;;;18.92;11.45;;;12.50;99.90;;;;;;5050743;28;20415;-73
2021/12/30 10:17:57;;;;;;;18.00;10.85;;;12.50;99.90;;;;;;5051209;28;20048;-73
2021/12/30 10:20:27;;;;;;;20.05;11.60;;;12.50;99.90;;;;;;5049865;28;20491;-73
2021/12/30 10:22:55;;;;;;;22.20;11.45;;;12.50;99.90;;;;;;5051577;28;20090;-74
2021/12/30 10:25:32;;;;;;;22.48;11.23;;;12.50;99.90;;;;;;5053455;28;20056;-74
2021/12/30 10:28:19;;;;;;;20.58;10.82;;;12.50;99.90;;;;;;5051501;28;20062;-73
2021/12/30 10:30:45;;;;;;;20.70;10.05;;;12.50;99.90;;;;;;5051341;28;20056;-76
2021/12/30 10:33:15;;;;;;;19.05;9.85;;;12.50;99.90;;;;;;5045077;28;20099;-73
2021/12/30 10:35:42;;;;;;;19.52;9.85;;;12.50;99.90;;;;;;5051045;28;20040;-73
2021/12/30 10:38:09;;;;;;;17.77;9.38;;;12.60;99.90;;;;;;5036264;28;20049;-72
2021/12/30 10:40:41;;;;;;;18.13;9.60;;;12.60;99.90;;;;;;5042468;28;20057;-72
2021/12/30 10:46:20;;;;;;;17.23;9.02;;;12.60;99.90;;;;;;5040251;28;20458;-72
2021/12/30 10:48:47;;;;;;;19.00;9.27;;;12.60;99.90;;;;;;5051086;28;20048;-72
2021/12/30 10:51:16;;;;;;;17.77;9.30;;;12.60;99.90;;;;;;5049975;28;20045;-72
2021/12/30 10:53:42;;;;;;;17.73;8.02;;;12.60;99.90;;;;;;5053780;28;20470;-72
2021/12/30 10:56:25;;;;;;;17.98;7.57;;;12.60;99.90;;;;;;5070665;28;20068;-72
2021/12/30 10:58:54;;;;;;;15.73;8.07;;;12.60;99.90;;;;;;5051276;28;20051;-73
2021/12/30 11:01:21;;;;;;;21.85;7.60;;;12.60;99.90;;;;;;5051306;28;20055;-72
2021/12/30 11:04:00;;;;;;;22.55;7.82;;;12.60;99.90;;;;;;5049320;28;20052;-72
2021/12/30 11:06:27;;;;;;;31.50;8.63;;;12.60;99.90;;;;;;5050953;28;20052;-72
2021/12/30 11:09:04;;;;;;;24.83;7.88;;;12.60;99.90;;;;;;5069088;28;20077;-72
2021/12/30 11:11:30;;;;;;;22.20;7.85;;;12.60;99.90;;;;;;5049372;28;20049;-73
2021/12/30 11:14:04;;;;;;;19.92;8.25;;;12.70;99.90;;;;;;5049777;28;20039;-71
2021/12/30 11:16:30;;;;;;;21.17;7.13;;;12.70;99.90;;;;;;5051757;28;20052;-72
2021/12/30 11:18:57;;;;;;;22.40;7.57;;;12.70;99.90;;;;;;5048265;28;20120;-72
2021/12/30 11:21:42;;;;;;;27.88;6.97;;;12.70;99.90;;;;;;5054532;28;20068;-72
2021/12/30 11:24:09;;;;;;;30.17;7.30;;;12.70;99.90;;;;;;5051247;28;20353;-76
2021/12/30 11:26:35;;;;;;;24.77;7.80;;;12.70;99.90;;;;;;5038901;28;20183;-72
2021/12/30 11:29:02;;;;;;;23.35;7.15;;;12.80;99.90;;;;;;5050832;28;20051;-72
2021/12/30 11:31:29;;;;;;;27.00;6.97;;;12.70;99.90;;;;;;5048284;28;20044;-73
2021/12/30 11:33:55;;;;;;;23.60;7.63;;;12.70;99.90;;;;;;5047335;28;20036;-74
2021/12/30 11:36:21;;;;;;;28.00;7.43;;;12.70;99.90;;;;;;5049702;28;20089;-74
2021/12/30 11:38:46;;;;;;;30.88;7.32;;;12.70;99.90;;;;;;5050576;28;20045;-73
2021/12/30 11:41:20;;;;;;;27.17;7.50;;;12.70;99.90;;;;;;5048786;28;20036;-74
2021/12/30 11:43:48;;;;;;;22.50;7.43;;;12.70;99.90;;;;;;5069168;28;20049;-73
2021/12/30 11:46:32;;;;;;;;;;;12.70;99.90;;;;;;5050645;28;20439;-73
2021/12/30 11:48:57;;;;;;;27.42;7.78;;;12.70;99.90;;;;;;5050978;28;19943;-71
2021/12/30 11:51:44;;;;;;;25.75;7.68;;;12.70;99.90;;;;;;5049740;28;20480;-72
2021/12/30 11:54:35;;;;;;;29.47;8.10;;;12.70;99.90;;;;;;5067928;28;20040;-72
2021/12/30 11:57:25;;;;;;;24.92;7.65;;;12.70;99.90;;;;;;5046673;28;20045;-73
2021/12/30 11:59:52;;;;;;;30.23;8.40;;;12.70;99.90;;;;;;5044171;28;20483;-72
2021/12/30 12:02:34;;;;;;;30.27;8.83;;;12.60;99.90;;;;;;5048176;28;20041;-71
2021/12/30 12:05:37;;;;;;;31.15;8.43;;;12.70;99.90;;;;;;5058884;28;20040;-71
2021/12/30 12:08:05;;;;;;;28.45;8.13;;;12.60;99.90;;;;;;5050116;28;20043;-71
2021/12/30 12:10:30;;;;;;;30.05;9.30;;;12.60;99.90;;;;;;5053145;28;20123;-71
2021/12/30 12:12:56;;;;;;;28.88;8.60;;;12.60;99.90;;;;;;5053988;28;20483;-71
2021/12/30 12:15:22;;;;;;;29.83;8.63;;;12.60;99.90;;;;;;5072025;28;20473;-71
2021/12/30 12:17:47;;;;;;;30.90;9.40;;;12.60;99.90;;;;;;5051357;28;20132;-71
2021/12/30 12:20:17;;;;;;;25.25;9.57;;;12.60;99.90;;;;;;5042218;28;20051;-71
2021/12/30 12:22:43;;;;;;;29.63;9.57;;;12.60;99.90;;;;;;5050213;28;20433;-72
2021/12/30 12:25:20;;;;;;;31.75;9.02;;;12.60;99.90;;;;;;5055345;28;20049;-72
2021/12/30 12:27:49;;;;;;;27.38;8.20;;;12.50;99.90;;;;;;5053174;28;20059;-72
2021/12/30 12:30:34;;;;;;;24.45;8.10;;;12.50;99.90;;;;;;5054304;28;20051;-72
2021/12/30 12:33:33;;;;;;;28.55;8.40;;;12.60;99.90;;;;;;5053074;28;20119;-71
2021/12/30 12:36:22;;;;;;;25.35;7.57;;;12.60;99.90;;;;;;5051176;28;20059;-71
2021/12/30 12:38:50;;;;;;;26.80;7.70;;;12.60;99.90;;;;;;5052665;28;20056;-70
2021/12/30 12:41:32;;;;;;;28.33;7.82;;;12.70;99.90;;;;;;5054833;28;20068;-72